createdAt,value
2022-08-28T00:01:45.395Z,57.73
2022-08-28T00:06:59.138Z,57.64
2022-08-28T00:11:52.034Z,57.77
2022-08-28T00:16:51.973Z,57.89
2022-08-28T00:21:51.903Z,57.93
2022-08-28T00:26:51.893Z,57.95
2022-08-28T00:31:51.788Z,57.92
2022-08-28T00:36:51.703Z,57.93
2022-08-28T00:41:51.646Z,57.91
2022-08-28T00:46:52.638Z,57.90
2022-08-28T00:51:51.499Z,57.92
2022-08-28T00:56:51.468Z,57.89
2022-08-28T01:01:51.397Z,57.85
2022-08-28T01:06:51.315Z,57.83
2022-08-28T01:11:51.261Z,57.83
2022-08-28T01:16:51.173Z,57.79
2022-08-28T01:21:51.098Z,57.76
2022-08-28T01:26:51.093Z,57.73
2022-08-28T01:31:50.971Z,57.67
2022-08-28T01:36:50.953Z,57.59
2022-08-28T01:41:50.850Z,57.56
2022-08-28T01:46:50.766Z,57.54
2022-08-28T01:51:51.290Z,57.51
2022-08-28T01:56:51.347Z,57.46
2022-08-28T02:01:50.686Z,57.43
2022-08-28T02:06:50.529Z,57.42
2022-08-28T02:11:50.480Z,57.40
2022-08-28T02:16:50.395Z,57.40
2022-08-28T02:21:50.324Z,57.38
2022-08-28T02:26:50.249Z,57.38
2022-08-28T02:31:50.168Z,57.35
2022-08-28T02:36:50.136Z,57.37
2022-08-28T02:41:50.073Z,57.36
2022-08-28T02:46:49.978Z,57.39
2022-08-28T02:51:49.911Z,57.36
2022-08-28T02:56:49.848Z,57.36
2022-08-28T03:01:49.836Z,57.32
2022-08-28T03:06:49.754Z,57.32
2022-08-28T03:11:49.750Z,57.33
2022-08-28T03:16:49.649Z,57.33
2022-08-28T03:21:49.511Z,57.34
2022-08-28T03:26:49.576Z,57.35
2022-08-28T03:31:49.389Z,57.34
2022-08-28T03:36:49.342Z,57.35
2022-08-28T03:41:49.234Z,57.35
2022-08-28T03:46:49.189Z,57.34
2022-08-28T03:51:49.109Z,57.36
2022-08-28T03:56:49.047Z,57.37
2022-08-28T04:01:49.159Z,57.37
2022-08-28T04:06:48.919Z,57.39
2022-08-28T04:11:48.891Z,57.40
2022-08-28T04:16:48.879Z,57.39
2022-08-28T04:21:48.722Z,57.36
2022-08-28T04:26:48.641Z,57.37
2022-08-28T04:31:48.593Z,57.37
2022-08-28T04:36:48.545Z,57.37
2022-08-28T04:41:48.438Z,57.36
2022-08-28T04:46:48.446Z,57.36
2022-08-28T04:51:48.346Z,57.36
2022-08-28T04:56:48.253Z,57.32
2022-08-28T05:01:48.194Z,57.32
2022-08-28T05:06:48.114Z,57.25
2022-08-28T05:11:48.044Z,57.20
2022-08-28T05:16:47.976Z,57.16
2022-08-28T05:21:47.910Z,57.06
2022-08-28T05:26:48.126Z,56.97
2022-08-28T05:31:47.890Z,56.85
2022-08-28T05:36:47.736Z,56.69
2022-08-28T05:41:47.640Z,56.56
2022-08-28T05:46:47.628Z,56.45
2022-08-28T05:51:47.505Z,56.34
2022-08-28T05:56:47.434Z,56.16
2022-08-28T06:02:06.390Z,55.92
2022-08-28T06:06:58.761Z,55.77
2022-08-28T06:11:58.707Z,55.49
2022-08-28T06:16:58.693Z,55.22
2022-08-28T06:21:58.596Z,55.12
2022-08-28T06:26:58.779Z,55.13
2022-08-28T06:31:58.614Z,54.92
2022-08-28T06:36:58.389Z,54.58
2022-08-28T06:41:58.330Z,53.00
2022-08-28T06:46:58.269Z,49.54
2022-08-28T06:51:58.186Z,47.47
2022-08-28T06:56:58.118Z,46.77
2022-08-28T07:01:58.133Z,45.92
2022-08-28T07:06:57.973Z,45.20
2022-08-28T07:11:57.933Z,44.43
2022-08-28T07:16:57.876Z,43.11
2022-08-28T07:21:57.775Z,42.43
2022-08-28T07:26:57.701Z,41.23
2022-08-28T07:31:57.641Z,39.20
2022-08-28T07:36:57.583Z,37.37
2022-08-28T07:41:57.523Z,36.43
2022-08-28T07:46:57.466Z,35.60
2022-08-28T07:51:57.467Z,34.39
2022-08-28T07:56:57.317Z,33.19
2022-08-28T08:01:57.337Z,32.09
2022-08-28T08:06:58.176Z,31.71
2022-08-28T08:11:57.164Z,35.32
2022-08-28T08:16:57.094Z,33.20
2022-08-28T08:21:57.829Z,32.85
2022-08-28T08:26:59.537Z,32.00
2022-08-28T08:31:56.882Z,31.13
2022-08-28T08:36:56.803Z,30.39
2022-08-28T08:41:56.774Z,30.99
2022-08-28T08:46:57.833Z,29.66
2022-08-28T08:51:56.614Z,28.79
2022-08-28T08:56:56.571Z,30.58
2022-08-28T09:01:56.529Z,31.06
2022-08-28T09:06:56.465Z,28.02
2022-08-28T09:11:57.157Z,26.36
2022-08-28T09:16:56.286Z,24.93
2022-08-28T09:21:56.232Z,27.10
2022-08-28T09:26:56.185Z,29.82
2022-08-28T09:31:56.117Z,27.49
2022-08-28T09:36:56.029Z,23.41
2022-08-28T09:41:55.972Z,21.64
2022-08-28T09:46:55.936Z,26.98
2022-08-28T09:51:55.905Z,22.60
2022-08-28T09:56:55.980Z,20.65
2022-08-28T10:01:55.775Z,21.31
2022-08-28T10:06:55.646Z,24.94
2022-08-28T10:11:55.650Z,25.77
2022-08-28T10:16:55.495Z,20.36
2022-08-28T10:21:55.490Z,18.82
2022-08-28T10:26:55.394Z,18.62
2022-08-28T10:31:55.521Z,18.71
2022-08-28T10:36:55.261Z,18.43
2022-08-28T10:41:55.221Z,18.03
2022-08-28T10:46:55.280Z,17.85
2022-08-28T10:51:55.073Z,17.55
2022-08-28T10:56:56.552Z,17.58
2022-08-28T11:01:55.019Z,17.61
2022-08-28T11:06:54.885Z,17.59
2022-08-28T11:11:58.410Z,17.69
2022-08-28T11:16:55.853Z,17.95
2022-08-28T11:21:54.697Z,18.07
2022-08-28T11:26:54.655Z,18.13
2022-08-28T11:31:54.714Z,17.93
2022-08-28T11:36:54.566Z,18.10
2022-08-28T11:41:54.453Z,17.68
2022-08-28T11:46:54.382Z,17.75
2022-08-28T11:51:54.338Z,17.96
2022-08-28T11:56:54.235Z,18.02
2022-08-28T12:01:54.191Z,17.95
2022-08-28T12:06:54.139Z,18.05
2022-08-28T12:11:54.101Z,19.17
2022-08-28T12:16:54.025Z,19.28
2022-08-28T12:21:53.939Z,19.09
2022-08-28T12:26:53.870Z,19.12
2022-08-28T12:31:53.833Z,19.31
2022-08-28T12:36:53.790Z,18.86
2022-08-28T12:41:53.684Z,19.79
2022-08-28T12:46:53.627Z,20.25
2022-08-28T12:51:53.565Z,20.38
2022-08-28T12:56:53.519Z,20.57
2022-08-28T13:01:53.536Z,20.82
2022-08-28T13:06:53.372Z,20.88
2022-08-28T13:11:53.311Z,21.19
2022-08-28T13:16:53.269Z,21.47
2022-08-28T13:21:53.210Z,21.60
2022-08-28T13:26:53.116Z,21.84
2022-08-28T13:31:53.070Z,22.47
2022-08-28T13:36:52.991Z,22.04
2022-08-28T13:41:52.956Z,22.34
2022-08-28T13:46:52.865Z,22.36
2022-08-28T13:51:52.801Z,22.44
2022-08-28T13:56:52.721Z,22.56
2022-08-28T14:01:52.770Z,22.54
2022-08-28T14:06:52.585Z,22.89
2022-08-28T14:11:52.534Z,22.94
2022-08-28T14:16:52.537Z,23.17
2022-08-28T14:21:52.412Z,23.19
2022-08-28T14:26:52.339Z,23.36
2022-08-28T14:31:52.325Z,23.37
2022-08-28T14:36:52.289Z,23.42
2022-08-28T14:41:52.213Z,23.55
2022-08-28T14:46:52.087Z,23.62
2022-08-28T14:51:52.044Z,23.71
2022-08-28T14:56:51.956Z,23.90
2022-08-28T15:01:51.891Z,24.07
2022-08-28T15:06:51.830Z,24.32
2022-08-28T15:11:51.823Z,24.61
2022-08-28T15:16:51.956Z,24.83
2022-08-28T15:21:51.654Z,25.01
2022-08-28T15:26:51.571Z,25.15
2022-08-28T15:31:51.546Z,25.14
2022-08-28T15:36:54.633Z,25.35
2022-08-28T15:41:51.386Z,25.61
2022-08-28T15:46:51.282Z,25.78
2022-08-28T15:51:51.241Z,25.97
2022-08-28T15:56:52.787Z,26.16
2022-08-28T16:01:51.177Z,26.33
2022-08-28T16:06:56.544Z,26.56
2022-08-28T16:11:51.979Z,26.74
2022-08-28T16:16:51.077Z,26.85
2022-08-28T16:21:50.832Z,26.96
2022-08-28T16:26:50.753Z,27.22
2022-08-28T16:31:50.754Z,27.39
2022-08-28T16:36:50.641Z,27.52
2022-08-28T16:41:50.581Z,27.71
2022-08-28T16:46:50.564Z,27.90
2022-08-28T16:51:50.456Z,28.02
2022-08-28T16:56:50.386Z,28.19
2022-08-28T17:01:52.859Z,28.31
2022-08-28T17:06:50.265Z,28.53
2022-08-28T17:11:52.390Z,28.73
2022-08-28T17:16:50.171Z,28.95
2022-08-28T17:21:50.063Z,29.16
2022-08-28T17:26:50.049Z,29.35
2022-08-28T17:31:49.971Z,29.58
2022-08-28T17:36:49.979Z,29.79
2022-08-28T17:41:49.792Z,30.01
2022-08-28T17:46:49.775Z,30.29
2022-08-28T17:51:49.765Z,30.54
2022-08-28T17:56:49.681Z,30.76
2022-08-28T18:01:49.609Z,31.02
2022-08-28T18:06:49.494Z,31.28
2022-08-28T18:11:49.399Z,31.55
2022-08-28T18:16:49.406Z,31.82
2022-08-28T18:21:49.278Z,32.08
2022-08-28T18:26:49.200Z,32.31
2022-08-28T18:31:49.197Z,32.55
2022-08-28T18:36:49.133Z,32.83
2022-08-28T18:41:49.051Z,33.09
2022-08-28T18:46:49.084Z,33.36
2022-08-28T18:51:48.869Z,33.69
2022-08-28T18:56:49.626Z,33.94
2022-08-28T19:01:48.895Z,34.15
2022-08-28T19:06:48.684Z,34.34
2022-08-28T19:11:48.578Z,34.46
2022-08-28T19:16:48.526Z,34.59
2022-08-28T19:21:48.476Z,34.73
2022-08-28T19:26:48.470Z,34.93
2022-08-28T19:31:48.334Z,35.01
2022-08-28T19:36:48.278Z,35.15
2022-08-28T19:41:48.277Z,35.34
2022-08-28T19:46:48.173Z,35.43
2022-08-28T19:51:48.109Z,35.56
2022-08-28T19:56:48.160Z,35.63
2022-08-28T20:01:47.981Z,35.78
2022-08-28T20:06:48.223Z,35.88
2022-08-28T20:11:47.852Z,36.10
2022-08-28T20:16:47.738Z,36.19
2022-08-28T20:21:47.665Z,36.31
2022-08-28T20:26:47.615Z,36.41
2022-08-28T20:31:47.582Z,36.57
2022-08-28T20:36:47.450Z,36.72
2022-08-28T20:41:47.419Z,36.84
2022-08-28T20:46:51.348Z,37.00
2022-08-28T20:51:47.274Z,37.15
2022-08-28T20:56:47.207Z,37.32
2022-08-28T21:01:47.203Z,37.47
2022-08-28T21:06:47.064Z,37.65
2022-08-28T21:11:47.022Z,37.78
2022-08-28T21:16:46.959Z,37.85
2022-08-28T21:21:46.894Z,37.97
2022-08-28T21:26:46.821Z,38.21
2022-08-28T21:31:46.744Z,38.34
2022-08-28T21:36:50.096Z,38.40
2022-08-28T21:41:46.640Z,38.63
2022-08-28T21:46:46.557Z,38.78
2022-08-28T21:51:46.456Z,38.86
2022-08-28T21:56:46.401Z,38.92
2022-08-28T22:01:46.401Z,39.09
2022-08-28T22:06:46.281Z,39.19
2022-08-28T22:11:46.223Z,39.33
2022-08-28T22:16:46.197Z,39.46
2022-08-28T22:21:46.091Z,39.56
2022-08-28T22:26:46.014Z,39.59
2022-08-28T22:31:46.386Z,39.65
2022-08-28T22:36:45.884Z,39.77
2022-08-28T22:41:45.817Z,39.87
2022-08-28T22:46:45.753Z,39.95
2022-08-28T22:51:45.701Z,40.02
2022-08-28T22:56:45.615Z,40.06
2022-08-28T23:01:45.573Z,40.18
2022-08-28T23:06:45.464Z,40.25
2022-08-28T23:11:45.427Z,40.36
2022-08-28T23:16:45.404Z,40.44
2022-08-28T23:21:45.289Z,40.49
2022-08-28T23:26:45.238Z,40.54
2022-08-28T23:31:45.454Z,40.58
2022-08-28T23:36:45.096Z,40.68
2022-08-28T23:41:44.994Z,40.76
2022-08-28T23:46:44.953Z,40.87
2022-08-28T23:51:44.899Z,40.94
2022-08-28T23:56:44.819Z,41.04
